sensor_id;sensor_type;location;lat;lon;timestamp;P1;P2;P0
44871;PMS7003;30602;51.060;17.226;2022-08-06T00:01:50;16;14;12
44871;PMS7003;30602;51.060;17.226;2022-08-06T00:05:40;13;13;11
44871;PMS7003;30602;51.060;17.226;2022-08-06T00:08:53;14;13;11
44871;PMS7003;30602;51.060;17.226;2022-08-06T00:12:13;14;14;12
44871;PMS7003;30602;51.060;17.226;2022-08-06T00:15:25;14;13;12
44871;PMS7003;30602;51.060;17.226;2022-08-06T00:18:54;15;14;12
44871;PMS7003;30602;51.060;17.226;2022-08-06T00:22:50;16;16;13
44871;PMS7003;30602;51.060;17.226;2022-08-06T00:26:16;16;14;12
44871;PMS7003;30602;51.060;17.226;2022-08-06T00:29:44;16;16;13
44871;PMS7003;30602;51.060;17.226;2022-08-06T00:33:14;16;15;13
44871;PMS7003;30602;51.060;17.226;2022-08-06T00:36:25;17;15;13
44871;PMS7003;30602;51.060;17.226;2022-08-06T00:39:46;14;14;12
44871;PMS7003;30602;51.060;17.226;2022-08-06T00:43:15;15;14;12
44871;PMS7003;30602;51.060;17.226;2022-08-06T00:46:56;16;13;12
44871;PMS7003;30602;51.060;17.226;2022-08-06T00:50:31;17;15;12
44871;PMS7003;30602;51.060;17.226;2022-08-06T00:54:24;16;16;14
44871;PMS7003;30602;51.060;17.226;2022-08-06T00:58:03;19;16;13
44871;PMS7003;30602;51.060;17.226;2022-08-06T01:01:15;20;17;12
44871;PMS7003;30602;51.060;17.226;2022-08-06T01:04:24;18;15;12
44871;PMS7003;30602;51.060;17.226;2022-08-06T01:07:35;18;14;12
44871;PMS7003;30602;51.060;17.226;2022-08-06T01:11:14;16;16;13
44871;PMS7003;30602;51.060;17.226;2022-08-06T01:19:01;19;16;14
44871;PMS7003;30602;51.060;17.226;2022-08-06T01:22:32;16;15;13
44871;PMS7003;30602;51.060;17.226;2022-08-06T01:29:30;17;16;14
44871;PMS7003;30602;51.060;17.226;2022-08-06T01:33:11;14;14;11
44871;PMS7003;30602;51.060;17.226;2022-08-06T01:36:44;20;20;16
44871;PMS7003;30602;51.060;17.226;2022-08-06T01:40:20;17;17;13
44871;PMS7003;30602;51.060;17.226;2022-08-06T01:44:39;18;16;13
44871;PMS7003;30602;51.060;17.226;2022-08-06T01:48:12;17;17;15
44871;PMS7003;30602;51.060;17.226;2022-08-06T01:51:25;18;18;16
44871;PMS7003;30602;51.060;17.226;2022-08-06T01:54:37;18;17;14
44871;PMS7003;30602;51.060;17.226;2022-08-06T01:58:03;18;18;15
44871;PMS7003;30602;51.060;17.226;2022-08-06T02:01:10;17;17;14
44871;PMS7003;30602;51.060;17.226;2022-08-06T02:04:34;18;16;14
44871;PMS7003;30602;51.060;17.226;2022-08-06T02:08:10;21;20;15
44871;PMS7003;30602;51.060;17.226;2022-08-06T02:12:28;20;17;15
44871;PMS7003;30602;51.060;17.226;2022-08-06T02:15:36;18;18;16
44871;PMS7003;30602;51.060;17.226;2022-08-06T02:19:54;22;21;16
44871;PMS7003;30602;51.060;17.226;2022-08-06T02:23:52;21;20;16
44871;PMS7003;30602;51.060;17.226;2022-08-06T02:27:25;22;21;16
44871;PMS7003;30602;51.060;17.226;2022-08-06T02:31:09;24;22;18
44871;PMS7003;30602;51.060;17.226;2022-08-06T02:42:26;24;22;16
44871;PMS7003;30602;51.060;17.226;2022-08-06T02:49:59;19;18;15
44871;PMS7003;30602;51.060;17.226;2022-08-06T02:53:15;21;17;15
44871;PMS7003;30602;51.060;17.226;2022-08-06T02:56:48;21;18;14
44871;PMS7003;30602;51.060;17.226;2022-08-06T03:00:16;19;18;14
44871;PMS7003;30602;51.060;17.226;2022-08-06T03:03:26;19;17;14
44871;PMS7003;30602;51.060;17.226;2022-08-06T03:07:07;17;15;12
44871;PMS7003;30602;51.060;17.226;2022-08-06T03:10:39;18;15;12
44871;PMS7003;30602;51.060;17.226;2022-08-06T03:13:47;15;15;11
44871;PMS7003;30602;51.060;17.226;2022-08-06T03:16:59;15;13;11
44871;PMS7003;30602;51.060;17.226;2022-08-06T03:20:41;16;14;11
44871;PMS7003;30602;51.060;17.226;2022-08-06T03:23:52;15;14;11
44871;PMS7003;30602;51.060;17.226;2022-08-06T03:27:12;12;12;9
44871;PMS7003;30602;51.060;17.226;2022-08-06T03:30:34;11;10;8
44871;PMS7003;30602;51.060;17.226;2022-08-06T03:33:44;10;8;7
44871;PMS7003;30602;51.060;17.226;2022-08-06T03:36:57;13;11;8
44871;PMS7003;30602;51.060;17.226;2022-08-06T03:40:07;12;11;9
44871;PMS7003;30602;51.060;17.226;2022-08-06T03:43:19;11;11;9
44871;PMS7003;30602;51.060;17.226;2022-08-06T03:46:48;12;11;10
44871;PMS7003;30602;51.060;17.226;2022-08-06T03:51:11;9;9;7
44871;PMS7003;30602;51.060;17.226;2022-08-06T03:54:58;12;11;7
44871;PMS7003;30602;51.060;17.226;2022-08-06T03:58:14;9;9;7
44871;PMS7003;30602;51.060;17.226;2022-08-06T04:01:40;11;8;6
44871;PMS7003;30602;51.060;17.226;2022-08-06T04:05:05;7;6;4
44871;PMS7003;30602;51.060;17.226;2022-08-06T04:08:33;9;4;3
44871;PMS7003;30602;51.060;17.226;2022-08-06T04:11:54;5;4;4
44871;PMS7003;30602;51.060;17.226;2022-08-06T04:15:34;5;5;4
44871;PMS7003;30602;51.060;17.226;2022-08-06T04:19:04;5;4;3
44871;PMS7003;30602;51.060;17.226;2022-08-06T04:22:36;3;3;2
44871;PMS7003;30602;51.060;17.226;2022-08-06T04:25:47;3;3;2
44871;PMS7003;30602;51.060;17.226;2022-08-06T04:29:20;2;2;2
44871;PMS7003;30602;51.060;17.226;2022-08-06T04:32:32;3;3;3
44871;PMS7003;30602;51.060;17.226;2022-08-06T04:35:41;3;3;2
44871;PMS7003;30602;51.060;17.226;2022-08-06T04:39:08;3;3;2
44871;PMS7003;30602;51.060;17.226;2022-08-06T04:42:40;3;2;2
44871;PMS7003;30602;51.060;17.226;2022-08-06T04:46:12;3;2;1
44871;PMS7003;30602;51.060;17.226;2022-08-06T04:49:39;2;2;1
44871;PMS7003;30602;51.060;17.226;2022-08-06T04:53:20;3;2;2
44871;PMS7003;30602;51.060;17.226;2022-08-06T04:56:31;5;3;3
44871;PMS7003;30602;51.060;17.226;2022-08-06T04:59:42;5;5;4
44871;PMS7003;30602;51.060;17.226;2022-08-06T05:02:49;6;6;4
44871;PMS7003;30602;51.060;17.226;2022-08-06T05:06:05;5;4;3
44871;PMS7003;30602;51.060;17.226;2022-08-06T05:09:56;4;4;2
44871;PMS7003;30602;51.060;17.226;2022-08-06T05:13:19;4;4;3
44871;PMS7003;30602;51.060;17.226;2022-08-06T05:16:27;5;3;3
44871;PMS7003;30602;51.060;17.226;2022-08-06T05:19:44;3;3;2
44871;PMS7003;30602;51.060;17.226;2022-08-06T05:23:12;5;4;3
44871;PMS7003;30602;51.060;17.226;2022-08-06T05:26:43;4;3;2
44871;PMS7003;30602;51.060;17.226;2022-08-06T05:29:58;4;4;4
44871;PMS7003;30602;51.060;17.226;2022-08-06T05:33:09;3;3;3
44871;PMS7003;30602;51.060;17.226;2022-08-06T05:36:19;5;2;2
44871;PMS7003;30602;51.060;17.226;2022-08-06T05:40:09;6;5;3
44871;PMS7003;30602;51.060;17.226;2022-08-06T05:44:02;4;3;3
44871;PMS7003;30602;51.060;17.226;2022-08-06T05:47:12;6;5;3
44871;PMS7003;30602;51.060;17.226;2022-08-06T05:50:27;6;4;3
44871;PMS7003;30602;51.060;17.226;2022-08-06T05:58:04;5;5;4
44871;PMS7003;30602;51.060;17.226;2022-08-06T06:01:31;4;4;4
44871;PMS7003;30602;51.060;17.226;2022-08-06T06:04:46;4;4;4
44871;PMS7003;30602;51.060;17.226;2022-08-06T06:08:05;9;6;5
44871;PMS7003;30602;51.060;17.226;2022-08-06T06:11:36;7;7;6
44871;PMS7003;30602;51.060;17.226;2022-08-06T06:14:46;6;6;4
44871;PMS7003;30602;51.060;17.226;2022-08-06T06:36:25;8;7;6
44871;PMS7003;30602;51.060;17.226;2022-08-06T06:40:13;8;7;6
44871;PMS7003;30602;51.060;17.226;2022-08-06T06:44:28;8;7;6
44871;PMS7003;30602;51.060;17.226;2022-08-06T06:47:57;6;6;5
44871;PMS7003;30602;51.060;17.226;2022-08-06T06:51:19;8;8;6
44871;PMS7003;30602;51.060;17.226;2022-08-06T07:02:18;9;8;6
44871;PMS7003;30602;51.060;17.226;2022-08-06T07:05:49;8;7;6
44871;PMS7003;30602;51.060;17.226;2022-08-06T07:09:03;10;8;7
44871;PMS7003;30602;51.060;17.226;2022-08-06T07:12:15;8;8;6
44871;PMS7003;30602;51.060;17.226;2022-08-06T07:19:30;9;8;6
44871;PMS7003;30602;51.060;17.226;2022-08-06T07:22:44;9;8;7
44871;PMS7003;30602;51.060;17.226;2022-08-06T07:26:17;9;8;8
44871;PMS7003;30602;51.060;17.226;2022-08-06T07:30:04;11;8;7
44871;PMS7003;30602;51.060;17.226;2022-08-06T07:33:47;11;9;8
44871;PMS7003;30602;51.060;17.226;2022-08-06T07:37:17;7;6;4
44871;PMS7003;30602;51.060;17.226;2022-08-06T07:40:28;9;9;7
44871;PMS7003;30602;51.060;17.226;2022-08-06T07:44:08;11;10;8
44871;PMS7003;30602;51.060;17.226;2022-08-06T07:47:45;13;12;8
44871;PMS7003;30602;51.060;17.226;2022-08-06T07:51:47;13;9;8
44871;PMS7003;30602;51.060;17.226;2022-08-06T07:55:01;13;9;7
44871;PMS7003;30602;51.060;17.226;2022-08-06T07:58:42;11;11;8
44871;PMS7003;30602;51.060;17.226;2022-08-06T08:02:17;12;11;9
44871;PMS7003;30602;51.060;17.226;2022-08-06T08:05:46;11;11;9
44871;PMS7003;30602;51.060;17.226;2022-08-06T08:09:55;17;13;10
44871;PMS7003;30602;51.060;17.226;2022-08-06T08:13:35;11;11;9
44871;PMS7003;30602;51.060;17.226;2022-08-06T08:21:47;14;10;8
44871;PMS7003;30602;51.060;17.226;2022-08-06T08:25:19;10;9;8
44871;PMS7003;30602;51.060;17.226;2022-08-06T08:28:49;13;11;9
44871;PMS7003;30602;51.060;17.226;2022-08-06T08:32:00;12;9;8
44871;PMS7003;30602;51.060;17.226;2022-08-06T08:35:40;11;11;9
44871;PMS7003;30602;51.060;17.226;2022-08-06T08:39:31;12;11;9
44871;PMS7003;30602;51.060;17.226;2022-08-06T08:42:45;12;10;8
44871;PMS7003;30602;51.060;17.226;2022-08-06T08:46:06;11;11;9
44871;PMS7003;30602;51.060;17.226;2022-08-06T08:49:49;11;9;8
44871;PMS7003;30602;51.060;17.226;2022-08-06T08:53:22;11;10;8
44871;PMS7003;30602;51.060;17.226;2022-08-06T08:56:39;11;10;8
44871;PMS7003;30602;51.060;17.226;2022-08-06T08:59:58;10;9;7
44871;PMS7003;30602;51.060;17.226;2022-08-06T09:03:40;9;8;7
44871;PMS7003;30602;51.060;17.226;2022-08-06T09:07:03;10;9;8
44871;PMS7003;30602;51.060;17.226;2022-08-06T09:10:32;12;10;9
44871;PMS7003;30602;51.060;17.226;2022-08-06T09:14:10;11;10;8
44871;PMS7003;30602;51.060;17.226;2022-08-06T09:17:40;9;9;8
44871;PMS7003;30602;51.060;17.226;2022-08-06T09:20:47;12;10;8
44871;PMS7003;30602;51.060;17.226;2022-08-06T09:24:48;12;10;9
44871;PMS7003;30602;51.060;17.226;2022-08-06T09:28:32;11;10;9
44871;PMS7003;30602;51.060;17.226;2022-08-06T09:31:47;8;8;8
44871;PMS7003;30602;51.060;17.226;2022-08-06T09:35:20;11;10;8
44871;PMS7003;30602;51.060;17.226;2022-08-06T09:42:37;11;10;8
44871;PMS7003;30602;51.060;17.226;2022-08-06T09:50:06;10;9;8
44871;PMS7003;30602;51.060;17.226;2022-08-06T09:53:34;12;10;9
44871;PMS7003;30602;51.060;17.226;2022-08-06T09:57:13;6;6;5
44871;PMS7003;30602;51.060;17.226;2022-08-06T10:04:05;9;8;7
44871;PMS7003;30602;51.060;17.226;2022-08-06T10:07:31;15;10;9
44871;PMS7003;30602;51.060;17.226;2022-08-06T10:11:13;11;10;9
44871;PMS7003;30602;51.060;17.226;2022-08-06T10:15:22;12;11;9
44871;PMS7003;30602;51.060;17.226;2022-08-06T10:18:53;9;7;5
44871;PMS7003;30602;51.060;17.226;2022-08-06T10:26:24;9;9;7
44871;PMS7003;30602;51.060;17.226;2022-08-06T10:29:57;12;11;9
44871;PMS7003;30602;51.060;17.226;2022-08-06T10:33:28;10;9;8
44871;PMS7003;30602;51.060;17.226;2022-08-06T10:36:55;8;7;6
44871;PMS7003;30602;51.060;17.226;2022-08-06T10:40:09;10;9;7
44871;PMS7003;30602;51.060;17.226;2022-08-06T10:43:43;9;8;7
44871;PMS7003;30602;51.060;17.226;2022-08-06T10:46:53;9;8;7
44871;PMS7003;30602;51.060;17.226;2022-08-06T10:50:21;9;9;8
44871;PMS7003;30602;51.060;17.226;2022-08-06T10:53:51;8;8;7
44871;PMS7003;30602;51.060;17.226;2022-08-06T10:57:20;8;7;7
44871;PMS7003;30602;51.060;17.226;2022-08-06T11:15:22;9;7;5
44871;PMS7003;30602;51.060;17.226;2022-08-06T11:18:28;7;7;6
44871;PMS7003;30602;51.060;17.226;2022-08-06T11:21:40;9;6;5
44871;PMS7003;30602;51.060;17.226;2022-08-06T11:25:12;8;7;7
44871;PMS7003;30602;51.060;17.226;2022-08-06T11:29:03;10;7;7
44871;PMS7003;30602;51.060;17.226;2022-08-06T11:36:02;11;10;9
44871;PMS7003;30602;51.060;17.226;2022-08-06T11:39:30;6;6;5
44871;PMS7003;30602;51.060;17.226;2022-08-06T11:42:49;5;4;4
44871;PMS7003;30602;51.060;17.226;2022-08-06T11:57:18;4;4;3
44871;PMS7003;30602;51.060;17.226;2022-08-06T12:00:24;3;3;3
44871;PMS7003;30602;51.060;17.226;2022-08-06T12:03:53;3;3;3
44871;PMS7003;30602;51.060;17.226;2022-08-06T12:07:23;5;4;4
44871;PMS7003;30602;51.060;17.226;2022-08-06T12:10:39;3;3;3
44871;PMS7003;30602;51.060;17.226;2022-08-06T12:14:36;5;4;4
44871;PMS7003;30602;51.060;17.226;2022-08-06T12:17:36;5;5;4
44871;PMS7003;30602;51.060;17.226;2022-08-06T12:24:50;4;4;3
44871;PMS7003;30602;51.060;17.226;2022-08-06T12:28:01;3;3;3
44871;PMS7003;30602;51.060;17.226;2022-08-06T12:31:28;2;2;2
44871;PMS7003;30602;51.060;17.226;2022-08-06T12:35:04;5;4;4
44871;PMS7003;30602;51.060;17.226;2022-08-06T12:38:19;4;4;4
44871;PMS7003;30602;51.060;17.226;2022-08-06T12:42:01;7;7;7
44871;PMS7003;30602;51.060;17.226;2022-08-06T12:45:40;5;4;3
44871;PMS7003;30602;51.060;17.226;2022-08-06T12:49:18;4;4;3
44871;PMS7003;30602;51.060;17.226;2022-08-06T12:56:43;2;2;2
44871;PMS7003;30602;51.060;17.226;2022-08-06T12:59:52;3;2;2
44871;PMS7003;30602;51.060;17.226;2022-08-06T13:03:01;3;3;3
44871;PMS7003;30602;51.060;17.226;2022-08-06T13:06:32;3;3;3
44871;PMS7003;30602;51.060;17.226;2022-08-06T13:10:07;2;2;2
44871;PMS7003;30602;51.060;17.226;2022-08-06T13:17:16;3;3;3
44871;PMS7003;30602;51.060;17.226;2022-08-06T13:20:45;4;3;2
44871;PMS7003;30602;51.060;17.226;2022-08-06T13:24:09;3;3;3
44871;PMS7003;30602;51.060;17.226;2022-08-06T13:27:35;3;3;2
44871;PMS7003;30602;51.060;17.226;2022-08-06T13:30:51;3;3;2
44871;PMS7003;30602;51.060;17.226;2022-08-06T13:34:12;3;3;3
44871;PMS7003;30602;51.060;17.226;2022-08-06T13:37:49;2;2;2
44871;PMS7003;30602;51.060;17.226;2022-08-06T13:41:24;4;2;2
44871;PMS7003;30602;51.060;17.226;2022-08-06T13:44:54;3;3;2
44871;PMS7003;30602;51.060;17.226;2022-08-06T13:48:47;2;2;2
44871;PMS7003;30602;51.060;17.226;2022-08-06T13:52:26;2;2;2
44871;PMS7003;30602;51.060;17.226;2022-08-06T13:55:54;2;2;2
44871;PMS7003;30602;51.060;17.226;2022-08-06T13:59:32;5;3;2
44871;PMS7003;30602;51.060;17.226;2022-08-06T14:02:53;3;3;2
44871;PMS7003;30602;51.060;17.226;2022-08-06T14:06:19;3;3;2
44871;PMS7003;30602;51.060;17.226;2022-08-06T14:09:28;3;2;2
44871;PMS7003;30602;51.060;17.226;2022-08-06T14:13:07;1;1;1
44871;PMS7003;30602;51.060;17.226;2022-08-06T14:16:59;3;3;3
44871;PMS7003;30602;51.060;17.226;2022-08-06T14:20:20;2;2;2
44871;PMS7003;30602;51.060;17.226;2022-08-06T14:24:20;3;3;3
44871;PMS7003;30602;51.060;17.226;2022-08-06T14:27:39;1;1;1
44871;PMS7003;30602;51.060;17.226;2022-08-06T14:31:17;4;2;2
44871;PMS7003;30602;51.060;17.226;2022-08-06T14:34:39;2;2;2
44871;PMS7003;30602;51.060;17.226;2022-08-06T14:38:08;2;2;1
44871;PMS7003;30602;51.060;17.226;2022-08-06T14:41:51;2;2;2
44871;PMS7003;30602;51.060;17.226;2022-08-06T14:45:27;2;2;1
44871;PMS7003;30602;51.060;17.226;2022-08-06T14:49:22;2;2;2
44871;PMS7003;30602;51.060;17.226;2022-08-06T14:52:45;1;1;1
44871;PMS7003;30602;51.060;17.226;2022-08-06T14:56:14;1;1;1
44871;PMS7003;30602;51.060;17.226;2022-08-06T15:03:20;1;1;1
44871;PMS7003;30602;51.060;17.226;2022-08-06T15:06:28;2;2;2
44871;PMS7003;30602;51.060;17.226;2022-08-06T15:10:23;4;3;2
44871;PMS7003;30602;51.060;17.226;2022-08-06T15:13:39;7;5;4
44871;PMS7003;30602;51.060;17.226;2022-08-06T15:16:48;8;7;6
44871;PMS7003;30602;51.060;17.226;2022-08-06T15:19:59;5;3;3
44871;PMS7003;30602;51.060;17.226;2022-08-06T15:23:04;3;3;2
44871;PMS7003;30602;51.060;17.226;2022-08-06T15:26:10;1;1;1
44871;PMS7003;30602;51.060;17.226;2022-08-06T15:29:18;4;3;3
44871;PMS7003;30602;51.060;17.226;2022-08-06T15:32:24;6;4;3
44871;PMS7003;30602;51.060;17.226;2022-08-06T15:36:17;5;4;4
44871;PMS7003;30602;51.060;17.226;2022-08-06T15:39:31;4;4;3
44871;PMS7003;30602;51.060;17.226;2022-08-06T15:43:00;4;3;3
44871;PMS7003;30602;51.060;17.226;2022-08-06T15:46:30;8;7;5
44871;PMS7003;30602;51.060;17.226;2022-08-06T15:49:37;4;3;3
44871;PMS7003;30602;51.060;17.226;2022-08-06T15:52:48;2;2;2
44871;PMS7003;30602;51.060;17.226;2022-08-06T15:55:56;2;2;2
44871;PMS7003;30602;51.060;17.226;2022-08-06T15:59:04;13;13;7
44871;PMS7003;30602;51.060;17.226;2022-08-06T16:02:12;10;8;7
44871;PMS7003;30602;51.060;17.226;2022-08-06T16:05:30;6;5;4
44871;PMS7003;30602;51.060;17.226;2022-08-06T16:08:37;4;4;3
44871;PMS7003;30602;51.060;17.226;2022-08-06T16:12:12;6;6;5
44871;PMS7003;30602;51.060;17.226;2022-08-06T16:15:55;6;5;5
44871;PMS7003;30602;51.060;17.226;2022-08-06T16:19:56;5;5;4
44871;PMS7003;30602;51.060;17.226;2022-08-06T16:23:37;5;5;5
44871;PMS7003;30602;51.060;17.226;2022-08-06T16:26:54;4;4;3
44871;PMS7003;30602;51.060;17.226;2022-08-06T16:30:14;5;2;2
44871;PMS7003;30602;51.060;17.226;2022-08-06T16:34:04;1;1;1
44871;PMS7003;30602;51.060;17.226;2022-08-06T16:37:50;3;3;3
44871;PMS7003;30602;51.060;17.226;2022-08-06T16:41:18;2;2;1
44871;PMS7003;30602;51.060;17.226;2022-08-06T16:44:47;2;2;2
44871;PMS7003;30602;51.060;17.226;2022-08-06T16:48:11;3;3;2
44871;PMS7003;30602;51.060;17.226;2022-08-06T16:51:20;5;4;3
44871;PMS7003;30602;51.060;17.226;2022-08-06T16:54:30;4;4;4
44871;PMS7003;30602;51.060;17.226;2022-08-06T16:57:49;2;2;2
44871;PMS7003;30602;51.060;17.226;2022-08-06T17:01:09;3;3;3
44871;PMS7003;30602;51.060;17.226;2022-08-06T17:05:02;4;3;2
44871;PMS7003;30602;51.060;17.226;2022-08-06T17:08:40;2;2;2
44871;PMS7003;30602;51.060;17.226;2022-08-06T17:12:13;1;1;1
44871;PMS7003;30602;51.060;17.226;2022-08-06T17:15:55;2;2;2
44871;PMS7003;30602;51.060;17.226;2022-08-06T17:19:24;1;1;1
44871;PMS7003;30602;51.060;17.226;2022-08-06T17:22:33;1;1;1
44871;PMS7003;30602;51.060;17.226;2022-08-06T17:25:42;1;1;1
44871;PMS7003;30602;51.060;17.226;2022-08-06T17:29:09;1;1;1
44871;PMS7003;30602;51.060;17.226;2022-08-06T17:32:17;1;1;1
44871;PMS7003;30602;51.060;17.226;2022-08-06T17:35:27;1;1;1
44871;PMS7003;30602;51.060;17.226;2022-08-06T17:38:58;1;1;1
44871;PMS7003;30602;51.060;17.226;2022-08-06T17:42:06;1;1;1
44871;PMS7003;30602;51.060;17.226;2022-08-06T17:45:16;0;0;0
44871;PMS7003;30602;51.060;17.226;2022-08-06T17:49:14;1;1;1
44871;PMS7003;30602;51.060;17.226;2022-08-06T17:52:55;1;1;1
44871;PMS7003;30602;51.060;17.226;2022-08-06T17:56:28;2;2;1
44871;PMS7003;30602;51.060;17.226;2022-08-06T17:59:47;1;1;1
44871;PMS7003;30602;51.060;17.226;2022-08-06T18:03:02;1;1;1
44871;PMS7003;30602;51.060;17.226;2022-08-06T18:06:59;3;2;2
44871;PMS7003;30602;51.060;17.226;2022-08-06T18:10:22;1;1;1
44871;PMS7003;30602;51.060;17.226;2022-08-06T18:13:31;1;1;1
44871;PMS7003;30602;51.060;17.226;2022-08-06T18:17:33;2;1;1
44871;PMS7003;30602;51.060;17.226;2022-08-06T18:20:44;1;0;0
44871;PMS7003;30602;51.060;17.226;2022-08-06T18:24:11;1;1;1
44871;PMS7003;30602;51.060;17.226;2022-08-06T18:27:45;1;1;1
44871;PMS7003;30602;51.060;17.226;2022-08-06T18:31:24;1;1;1
44871;PMS7003;30602;51.060;17.226;2022-08-06T18:35:01;1;1;1
44871;PMS7003;30602;51.060;17.226;2022-08-06T18:38:55;2;2;2
44871;PMS7003;30602;51.060;17.226;2022-08-06T18:42:22;3;2;2
44871;PMS7003;30602;51.060;17.226;2022-08-06T18:45:53;2;2;2
44871;PMS7003;30602;51.060;17.226;2022-08-06T18:49:17;6;3;3
44871;PMS7003;30602;51.060;17.226;2022-08-06T18:53:01;5;3;3
44871;PMS7003;30602;51.060;17.226;2022-08-06T18:56:43;3;3;2
44871;PMS7003;30602;51.060;17.226;2022-08-06T19:00:14;4;4;3
44871;PMS7003;30602;51.060;17.226;2022-08-06T19:03:22;3;3;2
44871;PMS7003;30602;51.060;17.226;2022-08-06T19:06:30;2;2;2
44871;PMS7003;30602;51.060;17.226;2022-08-06T19:09:49;3;3;2
44871;PMS7003;30602;51.060;17.226;2022-08-06T19:13:16;5;3;2
44871;PMS7003;30602;51.060;17.226;2022-08-06T19:16:59;4;3;3
44871;PMS7003;30602;51.060;17.226;2022-08-06T19:20:09;5;4;3
44871;PMS7003;30602;51.060;17.226;2022-08-06T19:23:30;85;60;33
44871;PMS7003;30602;51.060;17.226;2022-08-06T19:27:10;101;79;37
44871;PMS7003;30602;51.060;17.226;2022-08-06T19:30:39;72;55;31
44871;PMS7003;30602;51.060;17.226;2022-08-06T19:34:24;77;58;34
44871;PMS7003;30602;51.060;17.226;2022-08-06T19:38:04;67;49;29
44871;PMS7003;30602;51.060;17.226;2022-08-06T19:41:16;54;40;26
44871;PMS7003;30602;51.060;17.226;2022-08-06T19:45:05;50;37;22
44871;PMS7003;30602;51.060;17.226;2022-08-06T19:48:36;48;38;23
44871;PMS7003;30602;51.060;17.226;2022-08-06T19:52:18;44;34;21
44871;PMS7003;30602;51.060;17.226;2022-08-06T19:55:54;50;38;24
44871;PMS7003;30602;51.060;17.226;2022-08-06T19:59:07;55;44;28
44871;PMS7003;30602;51.060;17.226;2022-08-06T20:03:22;54;42;26
44871;PMS7003;30602;51.060;17.226;2022-08-06T20:07:03;59;45;29
44871;PMS7003;30602;51.060;17.226;2022-08-06T20:10:34;62;47;30
44871;PMS7003;30602;51.060;17.226;2022-08-06T20:14:03;59;47;30
44871;PMS7003;30602;51.060;17.226;2022-08-06T20:17:20;57;47;30
44871;PMS7003;30602;51.060;17.226;2022-08-06T20:21:04;51;42;28
44871;PMS7003;30602;51.060;17.226;2022-08-06T20:24:33;63;49;31
44871;PMS7003;30602;51.060;17.226;2022-08-06T20:28:32;60;47;31
44871;PMS7003;30602;51.060;17.226;2022-08-06T20:32:07;47;37;25
44871;PMS7003;30602;51.060;17.226;2022-08-06T20:39:19;35;32;22
44871;PMS7003;30602;51.060;17.226;2022-08-06T20:43:00;41;34;24
44871;PMS7003;30602;51.060;17.226;2022-08-06T20:46:42;39;33;23
44871;PMS7003;30602;51.060;17.226;2022-08-06T20:50:09;38;32;23
44871;PMS7003;30602;51.060;17.226;2022-08-06T20:53:47;32;27;19
44871;PMS7003;30602;51.060;17.226;2022-08-06T20:57:36;31;26;18
44871;PMS7003;30602;51.060;17.226;2022-08-06T21:00:45;23;22;16
44871;PMS7003;30602;51.060;17.226;2022-08-06T21:04:14;19;16;13
44871;PMS7003;30602;51.060;17.226;2022-08-06T21:07:42;19;15;12
44871;PMS7003;30602;51.060;17.226;2022-08-06T21:11:18;16;15;12
44871;PMS7003;30602;51.060;17.226;2022-08-06T21:15:03;14;14;10
44871;PMS7003;30602;51.060;17.226;2022-08-06T21:18:35;13;13;11
44871;PMS7003;30602;51.060;17.226;2022-08-06T21:22:04;13;12;10
44871;PMS7003;30602;51.060;17.226;2022-08-06T21:25:56;14;14;10
44871;PMS7003;30602;51.060;17.226;2022-08-06T21:29:35;18;14;11
44871;PMS7003;30602;51.060;17.226;2022-08-06T21:33:04;16;14;12
44871;PMS7003;30602;51.060;17.226;2022-08-06T21:36:44;15;14;10
44871;PMS7003;30602;51.060;17.226;2022-08-06T21:40:14;13;12;11
44871;PMS7003;30602;51.060;17.226;2022-08-06T21:43:43;15;11;10
44871;PMS7003;30602;51.060;17.226;2022-08-06T21:46:52;15;11;10
44871;PMS7003;30602;51.060;17.226;2022-08-06T21:50:00;13;11;10
44871;PMS7003;30602;51.060;17.226;2022-08-06T21:53:08;14;12;10
44871;PMS7003;30602;51.060;17.226;2022-08-06T21:56:46;11;11;9
44871;PMS7003;30602;51.060;17.226;2022-08-06T22:03:42;12;11;9
44871;PMS7003;30602;51.060;17.226;2022-08-06T22:07:03;11;11;8
44871;PMS7003;30602;51.060;17.226;2022-08-06T22:10:52;11;10;9
44871;PMS7003;30602;51.060;17.226;2022-08-06T22:14:34;11;10;8
44871;PMS7003;30602;51.060;17.226;2022-08-06T22:17:43;11;9;7
44871;PMS7003;30602;51.060;17.226;2022-08-06T22:21:14;8;8;7
44871;PMS7003;30602;51.060;17.226;2022-08-06T22:24:36;12;10;8
44871;PMS7003;30602;51.060;17.226;2022-08-06T22:27:43;12;10;8
44871;PMS7003;30602;51.060;17.226;2022-08-06T22:31:11;10;9;8
44871;PMS7003;30602;51.060;17.226;2022-08-06T22:35:07;11;10;8
44871;PMS7003;30602;51.060;17.226;2022-08-06T22:38:59;11;10;8
44871;PMS7003;30602;51.060;17.226;2022-08-06T22:42:41;9;8;7
44871;PMS7003;30602;51.060;17.226;2022-08-06T22:45:50;9;8;8
44871;PMS7003;30602;51.060;17.226;2022-08-06T22:49:11;7;6;5
44871;PMS7003;30602;51.060;17.226;2022-08-06T22:52:49;9;7;7
44871;PMS7003;30602;51.060;17.226;2022-08-06T22:56:16;8;7;6
44871;PMS7003;30602;51.060;17.226;2022-08-06T22:59:23;8;8;7
44871;PMS7003;30602;51.060;17.226;2022-08-06T23:03:09;7;7;6
44871;PMS7003;30602;51.060;17.226;2022-08-06T23:06:20;7;7;6
44871;PMS7003;30602;51.060;17.226;2022-08-06T23:14:27;6;6;5
44871;PMS7003;30602;51.060;17.226;2022-08-06T23:17:48;6;4;4
44871;PMS7003;30602;51.060;17.226;2022-08-06T23:21:41;4;4;4
44871;PMS7003;30602;51.060;17.226;2022-08-06T23:29:03;6;5;4
44871;PMS7003;30602;51.060;17.226;2022-08-06T23:32:12;4;4;4
44871;PMS7003;30602;51.060;17.226;2022-08-06T23:36:05;6;4;3
44871;PMS7003;30602;51.060;17.226;2022-08-06T23:39:44;5;5;4
44871;PMS7003;30602;51.060;17.226;2022-08-06T23:43:27;7;6;5
44871;PMS7003;30602;51.060;17.226;2022-08-06T23:46:35;3;3;3
44871;PMS7003;30602;51.060;17.226;2022-08-06T23:49:54;6;6;4
44871;PMS7003;30602;51.060;17.226;2022-08-06T23:53:01;5;5;5
44871;PMS7003;30602;51.060;17.226;2022-08-06T23:56:30;6;5;4
44871;PMS7003;30602;51.060;17.226;2022-08-06T23:59:51;5;5;5
